Portada
METAR-TAF:

METAR-TAF

Aeroports :

Shillong, Índia

latitud: 25-42-13N, longitud: 091-58-43E, altitud: 887 m

Observació

L'informe es va fer fa 22 minuts, a les 03:00 UTC
Vent calma
Temperatura 15°C
Humitat 88%
Pressió 1018 hPa
Visibilitat: 1500 m
Escasses núvols a una alçada de 2000 ft
Núvols disperses a una alçada de 2500 ft
Cel ennuvolat a una alçada de 8000 ft
boirina

METAR: VEBI 030300Z 00000KT 1500 BR FEW020 SCT025 BKN080 15/13 Q1018 BECMG 5000 HZ

Hora: 08:52 (03:22 UTC)

Pronòstic

L'informe es va fer fa 1 hora i 22 minuts, a les 02:00 UTC
Pronòstic vàlid del 03 a les 03 UTC al 03 a les 12 UTC
Vent 5 kt del Est/Nord-Est
Visibilitat: 3000 m
Escasses núvols a una alçada de 2000 ft
boirina
Evolucionant progressivament
l' 03 a les 07 UTC al 03 a les 09 UTC
Visibilitat: 5000 m
calitja

TAF: VEBI 030200Z 0303/0312 07005KT 3000 BR FEW020 BECMG 0307/0309 5000 HZ

Observacions i pronòstics meteorològics de més de 4000 aeroports (METAR i TAF).

Les estacions disponibles són els punts grocs i vermells al mapa.

Posi el ratolí al punt desitjat per veure el nom de l'estació.

Feu clic per veure les observacions i els pronòstics meteorològics.

Per canviar el mapa: feu clic els botons verds amb una creu de color negre per apropar; al botó verd amb un guió per allunyar la imatge; o en les fletxes verdes per a mapes adjacents.


METAR-TAF: